Flight Track Log - Related Links

Times and Time Zones

All times are in EDT time to prevent confusion due to time zone crossing. See the N88NB flight status page for this flight to view local times or setup timezone preferences in your user account.


Time Position Orientation Groundspeed Altitude Reporting Facility
EDT Latitude Longitude Course Direction KTS MPH feet Rate Location/Type
Thu 02:30:15 PM 45.2861 -122.8019 144° Southeast  Level FlightAware Approximate
Thu 02:31:15 PM 45.3173 -122.8274 147° Southeast  Level FlightAware Approximate
Thu 02:31:53 PM 45.2561 -122.7711 294° West 98 113 700  Level Seattle Center
Thu 02:32:54 PM 45.2678 -122.8092 306° West 137 158 1,500 1,031 Climbing Seattle Center
Thu 02:34:01 PM 45.2894 -122.8514 305° West 118 136 2,900 1,116 Climbing Seattle Center
Thu 02:35:03 PM 45.3064 -122.8858 302° West 111 128 3,900 661 Climbing Seattle Center
Thu 02:35:50 PM 45.3203 -122.9178 306° West 118 136 4,100 111 Climbing Seattle Center
Thu 02:36:51 PM 45.3447 -122.9653 332° Northwest 150 173 4,100  Level Seattle Center
Thu 02:37:45 PM 45.3825 -122.9939 336° Northwest 169 194 4,100  Level Seattle Center
Thu 02:38:46 PM 45.4267 -123.0225 327° Northwest 170 196 4,100  Level Seattle Center
Thu 02:39:47 PM 45.4689 -123.0617 326° Northwest 168 193 4,100 -45 Level Seattle Center
Thu 02:41:00 PM 45.5144 -123.1053 327° Northwest 170 196 4,000 -45 Descending Seattle Center
Thu 02:42:00 PM 45.5542 -123.1425 326° Northwest 171 197 4,000 58 Level Seattle Center
Thu 02:42:43 PM 45.5825 -123.1697 328° Northwest 172 198 4,100  Climbing Seattle Center
Thu 02:43:14 PM 45.6014 -123.1867 325° Northwest 170 196 4,000  Descending Seattle Center
Thu 02:43:56 PM 45.6281 -123.2136 357° North 172 198 4,100 59 Climbing Seattle Center
Thu 02:44:56 PM 45.6794 -123.2172 19° North 187 215 4,100  Level Seattle Center
Thu 02:45:57 PM 45.7228 -123.1964 77° East 173 199 4,100 -98 Level Seattle Center
Thu 02:46:58 PM 45.7300 -123.1522 142° Southeast 144 166 3,900 -275 Descending Seattle Center
Thu 02:47:46 PM 45.7122 -123.1325 141° Southeast 119 137 3,600 -289 Descending Seattle Center
Thu 02:48:21 PM 45.7011 -123.1194 144° Southeast 125 144 3,500 -63 Descending Seattle Center
Thu 02:49:22 PM 45.6769 -123.0942 146° Southeast 115 132 3,500  Level Seattle Center
Thu 02:50:00 PM 45.6567 -123.0744 139° Southeast 109 125 3,500 -196 Level Seattle Center
Thu 02:50:54 PM 45.6383 -123.0519 145° Southeast 98 113 3,200 -635 Descending Seattle Center
Thu 02:51:25 PM 45.6258 -123.0394 143° Southeast 106 122 2,600 -885 Descending Seattle Center
Thu 02:51:55 PM 45.6117 -123.0242 148° Southeast 116 133 2,300 -871 Descending Seattle Center
Thu 02:52:27 PM 45.5983 -123.0122 143° Southeast 110 127 1,700 -839 Descending Seattle Center
Thu 02:53:28 PM 45.5714 -122.9836 144° Southeast 115 132 1,000 -439 Descending Seattle Center
Thu 02:54:30 PM 45.5444 -122.9558 144° Southeast 116 133 800 -194 Descending Seattle Center

Login

Don't have an account? Register now (free) for customized features, flight alerts, and more!